Aviation Digital Data Service (ADDS)

Output produced by METARs form (2346 UTC 03 December 2016)
found at http://www.aviationweather.gov/adds/metars/
 
KUNV 032253Z 27010G19KT 10SM OVC037 04/M01 A3020
KUNV 032153Z 28013KT 10SM SCT031 OVC045 04/M01 A3020
KUNV 032053Z 29007KT 10SM SCT028 OVC042 04/00 A3019
KUNV 031953Z 27012KT 10SM -DZ SCT025 BKN034 OVC044 04/00 A3016
KUNV 031853Z 27010KT 10SM SCT021 OVC029 04/00 A2012
KUNV 031753Z 28013KT 10SM SCT022 BKN028 OVC046 04/00 A3014
KUNV 031653Z 28012G18KT 7SM BKN021 BKN026 OVC031 03/00 A3017
KUNV 031553Z 28013KT 7SM DZ OVC021 03/00 A3018
KUNV 031542Z 27008G16KT 10SM BKN019 BKN027 OVC042 03/01 A3018
KUNV 031453Z 28011KT 10SM SCT020 SCT030 OVC042 03/00 A3016
KUNV 031432Z 29012G16KT 10SM -DZ SCT014 BKN021 OVC042 03/01 A3016
KUNV 031427Z 29009G16KT 7SM -RA SCT014 BKN030 OVC042 03/01 A3015
KUNV 031414Z 30008G16KT 6SM DZ BR SCT016 BKN023 OVC030 03/00 A3015
KUNV 031353Z 28012KT 10SM OVC023 03/00 A3015
KUNV 031253Z 32006KT 10SM OVC024 03/M01 A3013
KUNV 031153Z 29009KT 10SM OVC024 03/M01 A3012
KUNV 031053Z 29008G11KT 10SM BKN023 BKN033 OVC060 03/M01 A3010
KUNV 030935Z AUTO 27013G18KT 10SM BKN023 OVC060 03/M01 A3008 RMK AO2 T00301008
KUNV 030915Z AUTO 27015G21KT 10SM BKN025 OVC060 03/M01 A3007 RMK AO2 T00281007
KUNV 030855Z AUTO 28012G19KT 10SM BKN023 BKN028 OVC060 03/M01 A3007 RMK AO2 T00291007
KUNV 030815Z AUTO 28017G21KT 10SM BKN025 BKN032 OVC060 03/M01 A3006 RMK AO2 T00301008
KUNV 030755Z AUTO 27015G20KT 10SM SCT023 BKN027 OVC060 03/M01 A3006 RMK AO2 T00301007
KUNV 030735Z AUTO 27012G24KT 10SM BKN025 BKN030 OVC060 03/M01 A3006 RMK AO2 T00301008
KUNV 030720Z AUTO 27014G24KT 10SM BKN024 OVC030 03/M01 A3007 RMK AO2 T00301007
KUNV 030655Z AUTO 27014G19KT 10SM BKN022 OVC028 03/00 A3006 RMK AO2 T00281005
KUNV 030635Z AUTO 27013G22KT 10SM BKN024 OVC032 03/M01 A3005 RMK AO2 T00281007
KUNV 030615Z AUTO 27018G21KT 10SM OVC024 03/M01 A3005 RMK AO2 T00301007
KUNV 030555Z AUTO 27014G20KT 10SM BKN024 OVC029 03/M01 A3005 RMK AO2 T00301008 10030 20020
KUNV 030535Z AUTO 26013G24KT 10SM BKN023 OVC028 03/M01 A3005 RMK AO2 T00281006
KUNV 030515Z AUTO 27011G19KT 10SM BKN026 BKN032 OVC049 03/M01 A3004 RMK AO2 T00291007
KUNV 030455Z AUTO 27017G25KT 10SM SCT024 BKN030 OVC044 03/M01 A3005 RMK AO2 T00301010
KUNV 030435Z AUTO 27016G22KT 10SM SCT024 BKN029 OVC035 03/M01 A3004 RMK AO2 T00291010
KUNV 030415Z AUTO 28014G22KT 10SM BKN026 BKN030 OVC060 03/M01 A3004 RMK AO2 T00291011
KUNV 030355Z AUTO 28014G22KT 10SM BKN024 OVC030 03/M01 A3003 RMK AO2 T00291010
KUNV 030335Z AUTO 28014G19KT 10SM BKN024 BKN028 OVC055 03/M01 A3003 RMK AO2 T00271007
KUNV 030315Z AUTO 28011G19KT 10SM BKN024 BKN031 OVC055 03/M01 A3003 RMK AO2 T00271007
KUNV 030153Z 24010G23KT 7SM -DZ SCT020 BKN027 OVC033 02/00 A3002
KUNV 030053Z 24010G23KT 7SM BKN025 BKN029 OVC035 03/M01 A3000
KUNV 022353Z 24012G23KT 5SM -SN BKN023 BKN029 OVC043 03/00 A3000
KUNV 022253Z 25011G20KT 10SM SCT028 SCT037 OVC060 03/M01 A2999
KUNV 022153Z 26011G20KT 10SM SCT032 BKN043 OVC049 03/M02 A2998
KUNV 022053Z 26011G22KT 10SM SCT035 BKN041 OVC046 04/M02 A2998
KUNV 021953Z 26015G25KT 10SM BKN040 BKN049 OVC055 04/M02 A2995
KUNV 021853Z 27015G22KT 10SM SCT033 BKN060 05/M02 A2995
KUNV 021753Z 25014G19KT 10SM BKN030 OVC038 04/M02 A2996
KUNV 021653Z 26016G25KT 10SM SCT035 SCT046 OVC060 05/M02 A2996
KUNV 021553Z 26013KT 10SM SCT050 05/M01 A2998
KUNV 021523Z 22009G14KT 10SM OVC050 04/M01 A2998
KUNV 021453Z 24014KT 10SM OVC050 04/M01 A2998
KUNV 021353Z 24013KT 10SM SCT028 BKN046 03/M01 A2996
KUNV 021253Z 26012G14KT 10SM SCT034 SCT043 BKN050 03/M01 A2995
KUNV 021153Z 26012G17KT 10SM OVC028 03/M01 A2994